sensor_id;sensor_type;location;lat;lon;timestamp;pressure;altitude;pressure_sealevel;temperature;humidity
15604;BME280;7902;49.042;9.092;2023-02-17T00:01:20;99927.19;;;11.45;55.98
15604;BME280;7902;49.042;9.092;2023-02-17T00:03:46;99933.31;;;11.46;56.14
15604;BME280;7902;49.042;9.092;2023-02-17T00:06:17;99932.66;;;11.42;56.79
15604;BME280;7902;49.042;9.092;2023-02-17T00:08:44;99934.53;;;11.40;56.79
15604;BME280;7902;49.042;9.092;2023-02-17T00:11:11;99924.84;;;11.41;56.60
15604;BME280;7902;49.042;9.092;2023-02-17T00:13:37;99923.63;;;11.47;56.22
15604;BME280;7902;49.042;9.092;2023-02-17T00:16:26;99919.44;;;11.44;56.57
15604;BME280;7902;49.042;9.092;2023-02-17T00:19:00;99911.25;;;11.49;56.17
15604;BME280;7902;49.042;9.092;2023-02-17T00:21:28;99903.25;;;11.50;56.41
15604;BME280;7902;49.042;9.092;2023-02-17T00:23:56;99907.94;;;11.45;56.63
15604;BME280;7902;49.042;9.092;2023-02-17T00:26:22;99912.91;;;11.50;55.83
15604;BME280;7902;49.042;9.092;2023-02-17T00:28:49;99911.78;;;11.54;56.21
15604;BME280;7902;49.042;9.092;2023-02-17T00:31:18;99905.69;;;11.53;55.92
15604;BME280;7902;49.042;9.092;2023-02-17T00:33:44;99915.44;;;11.51;55.56
15604;BME280;7902;49.042;9.092;2023-02-17T00:36:12;99914.81;;;11.48;56.32
15604;BME280;7902;49.042;9.092;2023-02-17T00:38:39;99913.03;;;11.48;55.95
15604;BME280;7902;49.042;9.092;2023-02-17T00:41:05;99918.94;;;11.52;55.58
15604;BME280;7902;49.042;9.092;2023-02-17T00:43:31;99920.72;;;11.51;56.26
15604;BME280;7902;49.042;9.092;2023-02-17T00:45:57;99919.66;;;11.54;55.64
15604;BME280;7902;49.042;9.092;2023-02-17T00:48:23;99925.88;;;11.53;56.10
15604;BME280;7902;49.042;9.092;2023-02-17T00:50:49;99920.50;;;11.54;55.55
15604;BME280;7902;49.042;9.092;2023-02-17T00:53:15;99919.47;;;11.57;55.42
15604;BME280;7902;49.042;9.092;2023-02-17T00:55:41;99922.19;;;11.55;56.36
15604;BME280;7902;49.042;9.092;2023-02-17T00:58:07;99918.84;;;11.53;56.15
15604;BME280;7902;49.042;9.092;2023-02-17T01:00:33;99913.38;;;11.56;55.98
15604;BME280;7902;49.042;9.092;2023-02-17T01:02:59;99912.63;;;11.54;55.96
15604;BME280;7902;49.042;9.092;2023-02-17T01:05:24;99917.16;;;11.52;56.55
15604;BME280;7902;49.042;9.092;2023-02-17T01:07:50;99907.56;;;11.51;56.10
15604;BME280;7902;49.042;9.092;2023-02-17T01:10:16;99899.03;;;11.48;56.37
15604;BME280;7902;49.042;9.092;2023-02-17T01:12:42;99913.19;;;11.45;56.59
15604;BME280;7902;49.042;9.092;2023-02-17T01:15:09;99906.28;;;11.44;56.76
15604;BME280;7902;49.042;9.092;2023-02-17T01:17:35;99907.00;;;11.46;56.26
15604;BME280;7902;49.042;9.092;2023-02-17T01:20:01;99902.69;;;11.45;56.59
15604;BME280;7902;49.042;9.092;2023-02-17T01:22:27;99910.13;;;11.38;56.59
15604;BME280;7902;49.042;9.092;2023-02-17T01:24:53;99907.84;;;11.47;57.16
15604;BME280;7902;49.042;9.092;2023-02-17T01:27:18;99906.28;;;11.44;56.42
15604;BME280;7902;49.042;9.092;2023-02-17T01:29:45;99900.25;;;11.42;56.03
15604;BME280;7902;49.042;9.092;2023-02-17T01:32:11;99896.28;;;11.49;56.56
15604;BME280;7902;49.042;9.092;2023-02-17T01:34:37;99888.69;;;11.44;56.79
15604;BME280;7902;49.042;9.092;2023-02-17T01:37:03;99885.91;;;11.33;56.41
15604;BME280;7902;49.042;9.092;2023-02-17T01:39:29;99884.09;;;11.48;56.55
15604;BME280;7902;49.042;9.092;2023-02-17T01:41:55;99886.34;;;11.40;57.14
15604;BME280;7902;49.042;9.092;2023-02-17T01:44:23;99880.63;;;11.48;56.31
15604;BME280;7902;49.042;9.092;2023-02-17T01:46:51;99882.97;;;11.52;56.05
15604;BME280;7902;49.042;9.092;2023-02-17T01:49:36;99889.91;;;11.53;56.27
15604;BME280;7902;49.042;9.092;2023-02-17T01:52:09;99880.13;;;11.55;55.84
15604;BME280;7902;49.042;9.092;2023-02-17T01:54:49;99876.84;;;11.52;55.50
15604;BME280;7902;49.042;9.092;2023-02-17T01:57:21;99879.28;;;11.55;56.32
15604;BME280;7902;49.042;9.092;2023-02-17T01:59:48;99883.59;;;11.56;56.03
15604;BME280;7902;49.042;9.092;2023-02-17T02:02:15;99877.69;;;11.52;55.84
15604;BME280;7902;49.042;9.092;2023-02-17T02:04:43;99884.66;;;11.53;56.49
15604;BME280;7902;49.042;9.092;2023-02-17T02:07:13;99874.94;;;11.54;56.42
15604;BME280;7902;49.042;9.092;2023-02-17T02:09:55;99877.50;;;11.55;55.81
15604;BME280;7902;49.042;9.092;2023-02-17T02:12:27;99867.91;;;11.54;56.76
15604;BME280;7902;49.042;9.092;2023-02-17T02:15:04;99864.34;;;11.55;55.68
15604;BME280;7902;49.042;9.092;2023-02-17T02:20:36;99869.81;;;11.52;55.77
15604;BME280;7902;49.042;9.092;2023-02-17T02:28:50;99864.53;;;11.52;56.39
15604;BME280;7902;49.042;9.092;2023-02-17T02:34:22;99860.00;;;11.54;56.58
15604;BME280;7902;49.042;9.092;2023-02-17T02:36:55;99851.41;;;11.52;55.74
15604;BME280;7902;49.042;9.092;2023-02-17T02:39:28;99846.13;;;11.52;55.95
15604;BME280;7902;49.042;9.092;2023-02-17T02:41:58;99840.03;;;11.52;56.15
15604;BME280;7902;49.042;9.092;2023-02-17T02:44:25;99849.06;;;11.48;56.25
15604;BME280;7902;49.042;9.092;2023-02-17T02:46:58;99845.94;;;11.55;55.70
15604;BME280;7902;49.042;9.092;2023-02-17T02:49:25;99844.34;;;11.53;56.07
15604;BME280;7902;49.042;9.092;2023-02-17T02:52:09;99847.63;;;11.56;56.62
15604;BME280;7902;49.042;9.092;2023-02-17T02:57:32;99831.94;;;11.55;56.25
15604;BME280;7902;49.042;9.092;2023-02-17T03:03:07;99831.06;;;11.54;56.17
15604;BME280;7902;49.042;9.092;2023-02-17T03:08:47;99825.81;;;11.54;56.17
15604;BME280;7902;49.042;9.092;2023-02-17T03:11:16;99823.94;;;11.56;56.10
15604;BME280;7902;49.042;9.092;2023-02-17T03:14:17;99820.56;;;11.54;55.99
15604;BME280;7902;49.042;9.092;2023-02-17T03:16:44;99819.63;;;11.55;56.23
15604;BME280;7902;49.042;9.092;2023-02-17T03:19:11;99820.56;;;11.54;55.96
15604;BME280;7902;49.042;9.092;2023-02-17T03:21:42;99819.94;;;11.51;55.65
15604;BME280;7902;49.042;9.092;2023-02-17T03:24:11;99821.63;;;11.52;56.09
15604;BME280;7902;49.042;9.092;2023-02-17T03:26:37;99817.38;;;11.49;55.74
15604;BME280;7902;49.042;9.092;2023-02-17T03:29:03;99819.72;;;11.54;55.82
15604;BME280;7902;49.042;9.092;2023-02-17T03:31:29;99813.50;;;11.55;55.96
15604;BME280;7902;49.042;9.092;2023-02-17T03:33:55;99817.09;;;11.54;56.27
15604;BME280;7902;49.042;9.092;2023-02-17T03:36:21;99820.00;;;11.49;55.80
15604;BME280;7902;49.042;9.092;2023-02-17T03:38:47;99822.63;;;11.49;56.17
15604;BME280;7902;49.042;9.092;2023-02-17T03:41:13;99818.97;;;11.52;56.72
15604;BME280;7902;49.042;9.092;2023-02-17T03:43:38;99817.19;;;11.52;56.89
15604;BME280;7902;49.042;9.092;2023-02-17T03:46:09;99815.72;;;11.48;56.85
15604;BME280;7902;49.042;9.092;2023-02-17T03:48:35;99819.94;;;11.51;55.89
15604;BME280;7902;49.042;9.092;2023-02-17T03:51:19;99824.34;;;11.50;56.94
15604;BME280;7902;49.042;9.092;2023-02-17T03:53:45;99830.34;;;11.52;56.26
15604;BME280;7902;49.042;9.092;2023-02-17T03:56:12;99825.19;;;11.51;56.02
15604;BME280;7902;49.042;9.092;2023-02-17T03:58:39;99832.44;;;11.47;56.17
15604;BME280;7902;49.042;9.092;2023-02-17T04:01:07;99832.44;;;11.47;56.72
15604;BME280;7902;49.042;9.092;2023-02-17T04:03:33;99830.53;;;11.49;56.56
15604;BME280;7902;49.042;9.092;2023-02-17T04:06:00;99830.53;;;11.49;56.40
15604;BME280;7902;49.042;9.092;2023-02-17T04:08:26;99830.53;;;11.49;56.44
15604;BME280;7902;49.042;9.092;2023-02-17T04:10:57;99821.66;;;11.37;57.04
15604;BME280;7902;49.042;9.092;2023-02-17T04:13:24;99837.53;;;11.36;57.81
15604;BME280;7902;49.042;9.092;2023-02-17T04:15:50;99833.56;;;11.43;57.62
15604;BME280;7902;49.042;9.092;2023-02-17T04:18:16;99830.31;;;11.25;59.17
15604;BME280;7902;49.042;9.092;2023-02-17T04:20:43;99822.59;;;11.36;59.91
15604;BME280;7902;49.042;9.092;2023-02-17T04:23:10;99822.50;;;11.38;59.77
15604;BME280;7902;49.042;9.092;2023-02-17T04:25:36;99820.69;;;11.53;58.39
15604;BME280;7902;49.042;9.092;2023-02-17T04:28:03;99821.22;;;11.58;59.67
15604;BME280;7902;49.042;9.092;2023-02-17T04:30:30;99814.22;;;11.44;58.40
15604;BME280;7902;49.042;9.092;2023-02-17T04:32:56;99827.50;;;11.55;60.61
15604;BME280;7902;49.042;9.092;2023-02-17T04:35:22;99824.19;;;11.66;59.14
15604;BME280;7902;49.042;9.092;2023-02-17T04:37:48;99821.47;;;11.67;59.17
15604;BME280;7902;49.042;9.092;2023-02-17T04:40:14;99811.31;;;11.75;58.21
15604;BME280;7902;49.042;9.092;2023-02-17T04:42:40;99816.09;;;11.69;60.11
15604;BME280;7902;49.042;9.092;2023-02-17T04:45:07;99817.78;;;11.70;59.96
15604;BME280;7902;49.042;9.092;2023-02-17T04:47:33;99814.69;;;11.63;59.59
15604;BME280;7902;49.042;9.092;2023-02-17T04:49:59;99803.75;;;11.83;59.70
15604;BME280;7902;49.042;9.092;2023-02-17T04:52:25;99805.47;;;11.70;60.71
15604;BME280;7902;49.042;9.092;2023-02-17T04:54:51;99812.28;;;11.87;59.42
15604;BME280;7902;49.042;9.092;2023-02-17T04:57:17;99820.16;;;11.87;61.10
15604;BME280;7902;49.042;9.092;2023-02-17T04:59:43;99807.84;;;11.87;59.52
15604;BME280;7902;49.042;9.092;2023-02-17T05:02:09;99817.38;;;12.03;59.91
15604;BME280;7902;49.042;9.092;2023-02-17T05:04:35;99806.59;;;11.93;59.95
15604;BME280;7902;49.042;9.092;2023-02-17T05:07:01;99823.72;;;12.13;59.06
15604;BME280;7902;49.042;9.092;2023-02-17T05:09:27;99819.25;;;12.01;57.73
15604;BME280;7902;49.042;9.092;2023-02-17T05:11:52;99818.75;;;11.96;59.83
15604;BME280;7902;49.042;9.092;2023-02-17T05:14:18;99814.94;;;12.00;58.15
15604;BME280;7902;49.042;9.092;2023-02-17T05:16:44;99823.16;;;11.95;58.10
15604;BME280;7902;49.042;9.092;2023-02-17T05:19:10;99823.03;;;11.97;57.45
15604;BME280;7902;49.042;9.092;2023-02-17T05:21:36;99832.63;;;11.98;58.23
15604;BME280;7902;49.042;9.092;2023-02-17T05:24:03;99837.25;;;11.94;57.54
15604;BME280;7902;49.042;9.092;2023-02-17T05:26:29;99831.16;;;11.94;57.04
15604;BME280;7902;49.042;9.092;2023-02-17T05:28:55;99833.78;;;11.94;57.27
15604;BME280;7902;49.042;9.092;2023-02-17T05:31:21;99830.38;;;11.92;57.50
15604;BME280;7902;49.042;9.092;2023-02-17T05:33:47;99831.44;;;11.89;57.68
15604;BME280;7902;49.042;9.092;2023-02-17T05:36:13;99837.34;;;11.93;57.05
15604;BME280;7902;49.042;9.092;2023-02-17T05:38:39;99836.06;;;11.85;57.50
15604;BME280;7902;49.042;9.092;2023-02-17T05:41:05;99834.06;;;11.89;57.14
15604;BME280;7902;49.042;9.092;2023-02-17T05:43:31;99830.59;;;11.88;57.79
15604;BME280;7902;49.042;9.092;2023-02-17T05:46:02;99825.03;;;11.93;57.79
15604;BME280;7902;49.042;9.092;2023-02-17T05:48:28;99842.59;;;11.93;57.18
15604;BME280;7902;49.042;9.092;2023-02-17T05:50:54;99831.44;;;11.89;57.75
15604;BME280;7902;49.042;9.092;2023-02-17T05:53:20;99838.72;;;11.85;57.54
15604;BME280;7902;49.042;9.092;2023-02-17T05:55:46;99845.63;;;11.86;58.02
15604;BME280;7902;49.042;9.092;2023-02-17T05:58:12;99841.53;;;11.82;57.61
15604;BME280;7902;49.042;9.092;2023-02-17T06:00:38;99843.81;;;11.74;58.15
15604;BME280;7902;49.042;9.092;2023-02-17T06:03:04;99845.50;;;11.75;58.22
15604;BME280;7902;49.042;9.092;2023-02-17T06:05:30;99846.19;;;11.92;57.79
15604;BME280;7902;49.042;9.092;2023-02-17T06:07:56;99846.81;;;11.68;60.00
15604;BME280;7902;49.042;9.092;2023-02-17T06:10:22;99850.41;;;11.67;59.59
15604;BME280;7902;49.042;9.092;2023-02-17T06:12:47;99847.00;;;11.79;58.46
15604;BME280;7902;49.042;9.092;2023-02-17T06:15:13;99850.97;;;11.72;59.52
15604;BME280;7902;49.042;9.092;2023-02-17T06:17:39;99845.31;;;11.78;60.64
15604;BME280;7902;49.042;9.092;2023-02-17T06:20:06;99849.97;;;11.87;58.99
15604;BME280;7902;49.042;9.092;2023-02-17T06:22:32;99851.72;;;11.74;59.39
15604;BME280;7902;49.042;9.092;2023-02-17T06:24:58;99853.69;;;11.98;58.58
15604;BME280;7902;49.042;9.092;2023-02-17T06:27:24;99851.44;;;11.92;58.81
15604;BME280;7902;49.042;9.092;2023-02-17T06:29:50;99855.97;;;11.90;60.25
15604;BME280;7902;49.042;9.092;2023-02-17T06:32:16;99853.97;;;11.93;60.05
15604;BME280;7902;49.042;9.092;2023-02-17T06:34:42;99858.41;;;11.93;59.96
15604;BME280;7902;49.042;9.092;2023-02-17T06:37:08;99855.22;;;11.87;59.12
15604;BME280;7902;49.042;9.092;2023-02-17T06:39:34;99855.69;;;11.94;60.05
15604;BME280;7902;49.042;9.092;2023-02-17T06:42:00;99857.38;;;11.95;59.44
15604;BME280;7902;49.042;9.092;2023-02-17T06:44:26;99867.06;;;11.95;60.42
15604;BME280;7902;49.042;9.092;2023-02-17T06:46:52;99860.41;;;12.02;59.02
15604;BME280;7902;49.042;9.092;2023-02-17T06:49:18;99865.03;;;11.85;59.52
15604;BME280;7902;49.042;9.092;2023-02-17T06:51:43;99863.03;;;11.89;61.28
15604;BME280;7902;49.042;9.092;2023-02-17T06:54:09;99869.47;;;11.98;61.51
15604;BME280;7902;49.042;9.092;2023-02-17T06:56:35;99865.81;;;12.13;61.35
15604;BME280;7902;49.042;9.092;2023-02-17T06:59:02;99869.78;;;12.06;62.36
15604;BME280;7902;49.042;9.092;2023-02-17T07:01:28;99872.47;;;12.18;61.95
15604;BME280;7902;49.042;9.092;2023-02-17T07:03:55;99881.22;;;12.19;62.15
15604;BME280;7902;49.042;9.092;2023-02-17T07:06:22;99877.75;;;12.31;61.87
15604;BME280;7902;49.042;9.092;2023-02-17T07:08:48;99877.63;;;12.20;60.48
15604;BME280;7902;49.042;9.092;2023-02-17T07:11:15;99882.88;;;12.20;62.56
15604;BME280;7902;49.042;9.092;2023-02-17T07:13:41;99885.66;;;12.44;61.85
15604;BME280;7902;49.042;9.092;2023-02-17T07:16:10;99881.16;;;12.33;61.34
15604;BME280;7902;49.042;9.092;2023-02-17T07:18:36;99889.13;;;12.31;61.38
15604;BME280;7902;49.042;9.092;2023-02-17T07:21:07;99887.75;;;12.26;61.65
15604;BME280;7902;49.042;9.092;2023-02-17T07:23:34;99892.41;;;12.35;61.83
15604;BME280;7902;49.042;9.092;2023-02-17T07:26:05;99883.78;;;12.33;62.86
15604;BME280;7902;49.042;9.092;2023-02-17T07:28:32;99884.19;;;12.27;62.82
15604;BME280;7902;49.042;9.092;2023-02-17T07:31:06;99879.75;;;12.27;61.08
15604;BME280;7902;49.042;9.092;2023-02-17T07:33:33;99887.34;;;12.32;61.89
15604;BME280;7902;49.042;9.092;2023-02-17T07:35:59;99883.78;;;12.33;60.90
15604;BME280;7902;49.042;9.092;2023-02-17T07:38:25;99886.28;;;12.35;62.28
15604;BME280;7902;49.042;9.092;2023-02-17T07:40:51;99891.78;;;12.31;62.75
15604;BME280;7902;49.042;9.092;2023-02-17T07:43:17;99888.84;;;12.49;61.82
15604;BME280;7902;49.042;9.092;2023-02-17T07:45:43;99891.78;;;12.44;62.53
15604;BME280;7902;49.042;9.092;2023-02-17T07:48:09;99905.25;;;12.40;62.99
15604;BME280;7902;49.042;9.092;2023-02-17T07:50:35;99904.88;;;12.58;61.63
15604;BME280;7902;49.042;9.092;2023-02-17T07:53:01;99898.22;;;12.40;62.06
15604;BME280;7902;49.042;9.092;2023-02-17T07:55:27;99893.88;;;12.39;62.86
15604;BME280;7902;49.042;9.092;2023-02-17T07:57:53;99895.59;;;12.65;60.98
15604;BME280;7902;49.042;9.092;2023-02-17T08:00:19;99909.91;;;12.49;63.09
15604;BME280;7902;49.042;9.092;2023-02-17T08:02:45;99894.22;;;12.60;61.51
15604;BME280;7902;49.042;9.092;2023-02-17T08:05:11;99901.59;;;12.67;60.54
15604;BME280;7902;49.042;9.092;2023-02-17T08:07:37;99899.19;;;12.64;60.46
15604;BME280;7902;49.042;9.092;2023-02-17T08:10:03;99905.63;;;12.60;60.39
15604;BME280;7902;49.042;9.092;2023-02-17T08:13:04;99911.16;;;12.43;61.93
15604;BME280;7902;49.042;9.092;2023-02-17T08:15:45;99913.94;;;12.54;62.31
15604;BME280;7902;49.042;9.092;2023-02-17T08:18:11;99909.59;;;12.53;61.27
15604;BME280;7902;49.042;9.092;2023-02-17T08:20:37;99911.81;;;12.59;60.87
15604;BME280;7902;49.042;9.092;2023-02-17T08:23:03;99910.34;;;12.55;61.79
15604;BME280;7902;49.042;9.092;2023-02-17T08:25:31;99908.44;;;12.45;61.80
15604;BME280;7902;49.042;9.092;2023-02-17T08:27:58;99913.28;;;12.38;63.24
15604;BME280;7902;49.042;9.092;2023-02-17T08:30:24;99910.34;;;12.55;62.72
15604;BME280;7902;49.042;9.092;2023-02-17T08:32:50;99907.63;;;12.69;61.72
15604;BME280;7902;49.042;9.092;2023-02-17T08:35:16;99911.81;;;12.59;62.14
15604;BME280;7902;49.042;9.092;2023-02-17T08:37:43;99908.25;;;12.60;62.09
15604;BME280;7902;49.042;9.092;2023-02-17T08:40:09;99902.56;;;12.66;60.29
15604;BME280;7902;49.042;9.092;2023-02-17T08:42:35;99899.59;;;12.46;61.24
15604;BME280;7902;49.042;9.092;2023-02-17T08:45:02;99909.41;;;12.56;60.77
15604;BME280;7902;49.042;9.092;2023-02-17T08:47:28;99908.78;;;12.65;60.35
15604;BME280;7902;49.042;9.092;2023-02-17T08:49:54;99915.41;;;12.58;61.86
15604;BME280;7902;49.042;9.092;2023-02-17T08:52:20;99910.47;;;12.66;60.82
15604;BME280;7902;49.042;9.092;2023-02-17T08:54:46;99906.56;;;12.59;61.16
15604;BME280;7902;49.042;9.092;2023-02-17T08:57:12;99896.19;;;12.44;59.92
15604;BME280;7902;49.042;9.092;2023-02-17T08:59:38;99897.59;;;12.49;60.81
15604;BME280;7902;49.042;9.092;2023-02-17T09:02:04;99902.66;;;12.52;60.68
15604;BME280;7902;49.042;9.092;2023-02-17T09:04:30;99905.50;;;12.49;62.06
15604;BME280;7902;49.042;9.092;2023-02-17T09:06:56;99910.22;;;12.44;62.30
15604;BME280;7902;49.042;9.092;2023-02-17T09:09:24;99910.56;;;12.65;61.73
15604;BME280;7902;49.042;9.092;2023-02-17T09:11:53;99917.09;;;12.72;59.85
15604;BME280;7902;49.042;9.092;2023-02-17T09:14:21;99913.72;;;12.57;60.45
15604;BME280;7902;49.042;9.092;2023-02-17T09:16:50;99907.41;;;12.72;59.36
15604;BME280;7902;49.042;9.092;2023-02-17T09:19:17;99921.75;;;12.68;59.91
15604;BME280;7902;49.042;9.092;2023-02-17T09:21:42;99932.69;;;12.62;60.09
15604;BME280;7902;49.042;9.092;2023-02-17T09:24:08;99939.56;;;12.65;58.98
15604;BME280;7902;49.042;9.092;2023-02-17T09:26:34;99938.19;;;12.59;59.81
15604;BME280;7902;49.042;9.092;2023-02-17T09:29:01;99944.69;;;12.54;61.50
15604;BME280;7902;49.042;9.092;2023-02-17T09:31:29;99947.03;;;12.58;60.30
15604;BME280;7902;49.042;9.092;2023-02-17T09:33:55;99938.50;;;12.67;58.58
15604;BME280;7902;49.042;9.092;2023-02-17T09:36:23;99927.63;;;12.72;58.92
15604;BME280;7902;49.042;9.092;2023-02-17T09:38:50;99935.13;;;12.65;60.17
15604;BME280;7902;49.042;9.092;2023-02-17T09:44:16;99938.19;;;12.72;59.46
15604;BME280;7902;49.042;9.092;2023-02-17T09:46:45;99932.59;;;12.64;58.96
15604;BME280;7902;49.042;9.092;2023-02-17T09:49:23;99933.75;;;12.72;60.55
15604;BME280;7902;49.042;9.092;2023-02-17T09:52:06;99918.66;;;12.62;60.47
15604;BME280;7902;49.042;9.092;2023-02-17T09:54:46;99938.41;;;12.69;62.17
15604;BME280;7902;49.042;9.092;2023-02-17T09:57:19;99939.78;;;12.87;61.11
15604;BME280;7902;49.042;9.092;2023-02-17T10:00:11;99933.13;;;12.82;62.79
15604;BME280;7902;49.042;9.092;2023-02-17T10:02:40;99936.50;;;12.96;62.16
15604;BME280;7902;49.042;9.092;2023-02-17T10:05:14;99943.47;;;12.85;61.56
15604;BME280;7902;49.042;9.092;2023-02-17T10:07:45;99937.91;;;13.14;60.97
15604;BME280;7902;49.042;9.092;2023-02-17T10:10:22;99932.19;;;12.83;62.27
15604;BME280;7902;49.042;9.092;2023-02-17T10:12:54;99928.47;;;13.10;61.58
15604;BME280;7902;49.042;9.092;2023-02-17T10:15:24;99919.19;;;13.05;62.66
15604;BME280;7902;49.042;9.092;2023-02-17T10:21:20;99924.91;;;13.24;61.69
15604;BME280;7902;49.042;9.092;2023-02-17T10:23:27;99938.03;;;13.13;62.24
15604;BME280;7902;49.042;9.092;2023-02-17T10:28:43;99938.53;;;13.31;63.50
15604;BME280;7902;49.042;9.092;2023-02-17T10:31:27;99936.06;;;13.40;62.27
15604;BME280;7902;49.042;9.092;2023-02-17T10:34:02;99922.78;;;13.29;60.98
15604;BME280;7902;49.042;9.092;2023-02-17T10:39:25;99913.75;;;13.21;63.52
15604;BME280;7902;49.042;9.092;2023-02-17T10:41:55;99918.56;;;13.39;63.52
15604;BME280;7902;49.042;9.092;2023-02-17T10:44:22;99917.47;;;13.54;63.39
15604;BME280;7902;49.042;9.092;2023-02-17T10:46:51;99907.06;;;13.40;62.27
15604;BME280;7902;49.042;9.092;2023-02-17T10:49:27;99909.28;;;13.34;62.50
15604;BME280;7902;49.042;9.092;2023-02-17T10:52:00;99913.09;;;13.30;63.25
15604;BME280;7902;49.042;9.092;2023-02-17T10:54:37;99899.81;;;13.31;62.55
15604;BME280;7902;49.042;9.092;2023-02-17T10:57:07;99898.31;;;13.40;63.28
15604;BME280;7902;49.042;9.092;2023-02-17T10:59:43;99892.78;;;13.55;61.08
15604;BME280;7902;49.042;9.092;2023-02-17T11:04:51;99893.50;;;13.57;63.96
15604;BME280;7902;49.042;9.092;2023-02-17T11:07:30;99886.06;;;13.39;63.79
15604;BME280;7902;49.042;9.092;2023-02-17T11:10:00;99888.06;;;13.72;62.79
15604;BME280;7902;49.042;9.092;2023-02-17T11:12:31;99884.69;;;13.70;60.75
15604;BME280;7902;49.042;9.092;2023-02-17T11:14:58;99898.91;;;13.56;64.26
15604;BME280;7902;49.042;9.092;2023-02-17T11:17:39;99895.69;;;13.63;64.30
15604;BME280;7902;49.042;9.092;2023-02-17T11:22:43;99896.72;;;13.74;63.72
15604;BME280;7902;49.042;9.092;2023-02-17T11:25:21;99882.84;;;13.83;61.69
15604;BME280;7902;49.042;9.092;2023-02-17T11:27:52;99887.09;;;13.73;62.50
15604;BME280;7902;49.042;9.092;2023-02-17T11:30:19;99873.84;;;13.61;61.28
15604;BME280;7902;49.042;9.092;2023-02-17T11:32:45;99880.56;;;13.66;61.75
15604;BME280;7902;49.042;9.092;2023-02-17T11:35:44;99885.38;;;13.60;60.51
15604;BME280;7902;49.042;9.092;2023-02-17T11:38:21;99885.25;;;13.62;62.67
15604;BME280;7902;49.042;9.092;2023-02-17T11:41:02;99890.34;;;13.76;63.68
15604;BME280;7902;49.042;9.092;2023-02-17T11:43:30;99891.63;;;13.71;62.43
15604;BME280;7902;49.042;9.092;2023-02-17T11:46:19;99881.72;;;13.74;62.47
15604;BME280;7902;49.042;9.092;2023-02-17T11:54:23;99880.56;;;13.66;59.98
15604;BME280;7902;49.042;9.092;2023-02-17T11:57:30;99884.69;;;13.70;60.72
15604;BME280;7902;49.042;9.092;2023-02-17T12:00:04;99878.28;;;13.85;62.78
15604;BME280;7902;49.042;9.092;2023-02-17T12:02:55;99880.88;;;13.74;60.23
15604;BME280;7902;49.042;9.092;2023-02-17T12:11:06;99887.84;;;13.75;60.75
15604;BME280;7902;49.042;9.092;2023-02-17T12:19:30;99869.66;;;13.83;61.59
15604;BME280;7902;49.042;9.092;2023-02-17T12:22:14;99867.53;;;13.99;62.32
15604;BME280;7902;49.042;9.092;2023-02-17T12:28:35;99880.81;;;13.86;62.19
15604;BME280;7902;49.042;9.092;2023-02-17T12:31:45;99871.31;;;14.07;61.53
15604;BME280;7902;49.042;9.092;2023-02-17T12:36:15;99859.78;;;14.08;59.51
15604;BME280;7902;49.042;9.092;2023-02-17T12:38:48;99872.28;;;14.06;61.59
15604;BME280;7902;49.042;9.092;2023-02-17T12:41:29;99870.19;;;13.99;61.94
15604;BME280;7902;49.042;9.092;2023-02-17T12:44:12;99861.81;;;14.05;61.76
15604;BME280;7902;49.042;9.092;2023-02-17T12:46:42;99864.56;;;14.03;61.91
15604;BME280;7902;49.042;9.092;2023-02-17T12:49:26;99866.28;;;14.16;62.52
15604;BME280;7902;49.042;9.092;2023-02-17T12:52:02;99864.31;;;14.30;62.37
15604;BME280;7902;49.042;9.092;2023-02-17T12:54:49;99866.81;;;14.32;61.20
15604;BME280;7902;49.042;9.092;2023-02-17T12:57:34;99860.44;;;14.23;60.17
15604;BME280;7902;49.042;9.092;2023-02-17T13:00:14;99858.72;;;14.22;60.32
15604;BME280;7902;49.042;9.092;2023-02-17T13:02:42;99855.56;;;14.06;60.98
15604;BME280;7902;49.042;9.092;2023-02-17T13:05:19;99848.88;;;14.13;62.03
15604;BME280;7902;49.042;9.092;2023-02-17T13:07:52;99854.16;;;14.13;61.49
15604;BME280;7902;49.042;9.092;2023-02-17T13:10:34;99860.56;;;14.22;61.68
15604;BME280;7902;49.042;9.092;2023-02-17T13:13:30;99853.91;;;14.40;62.68
15604;BME280;7902;49.042;9.092;2023-02-17T13:18:37;99853.56;;;14.44;62.43
15604;BME280;7902;49.042;9.092;2023-02-17T13:24:03;99846.94;;;14.39;60.07
15604;BME280;7902;49.042;9.092;2023-02-17T13:26:41;99853.06;;;14.50;61.49
15604;BME280;7902;49.042;9.092;2023-02-17T13:32:06;99841.78;;;14.48;60.67
15604;BME280;7902;49.042;9.092;2023-02-17T13:34:43;99838.69;;;14.55;62.45
15604;BME280;7902;49.042;9.092;2023-02-17T13:37:38;99842.50;;;14.39;62.17
15604;BME280;7902;49.042;9.092;2023-02-17T13:42:50;99839.78;;;14.63;61.80
15604;BME280;7902;49.042;9.092;2023-02-17T13:45:27;99846.59;;;14.66;62.42
15604;BME280;7902;49.042;9.092;2023-02-17T13:47:56;99836.28;;;14.85;61.34
15604;BME280;7902;49.042;9.092;2023-02-17T13:50:33;99826.31;;;15.00;61.95
15604;BME280;7902;49.042;9.092;2023-02-17T13:53:01;99831.72;;;14.87;61.00
15604;BME280;7902;49.042;9.092;2023-02-17T13:55:28;99817.31;;;14.91;59.79
15604;BME280;7902;49.042;9.092;2023-02-17T13:57:57;99817.78;;;14.85;59.63
15604;BME280;7902;49.042;9.092;2023-02-17T14:00:25;99815.94;;;15.19;61.99
15604;BME280;7902;49.042;9.092;2023-02-17T14:03:16;99813.78;;;15.13;60.98
15604;BME280;7902;49.042;9.092;2023-02-17T14:05:46;99806.91;;;15.32;61.03
15604;BME280;7902;49.042;9.092;2023-02-17T14:08:17;99800.72;;;15.54;59.37
15604;BME280;7902;49.042;9.092;2023-02-17T14:10:44;99812.88;;;15.46;60.35
15604;BME280;7902;49.042;9.092;2023-02-17T14:13:11;99808.28;;;15.59;60.51
15604;BME280;7902;49.042;9.092;2023-02-17T14:15:51;99801.91;;;15.61;58.55
15604;BME280;7902;49.042;9.092;2023-02-17T14:18:36;99803.13;;;15.57;59.26
15604;BME280;7902;49.042;9.092;2023-02-17T14:21:24;99797.75;;;15.36;58.44
15604;BME280;7902;49.042;9.092;2023-02-17T14:23:52;99802.81;;;15.40;58.79
15604;BME280;7902;49.042;9.092;2023-02-17T14:28:54;99794.91;;;15.17;58.84
15604;BME280;7902;49.042;9.092;2023-02-17T14:31:20;99797.91;;;15.24;59.31
15604;BME280;7902;49.042;9.092;2023-02-17T14:33:58;99788.53;;;15.09;60.68
15604;BME280;7902;49.042;9.092;2023-02-17T14:36:36;99796.59;;;15.18;60.41
15604;BME280;7902;49.042;9.092;2023-02-17T14:39:05;99792.66;;;15.45;60.54